createdAt,value
2019-02-10T00:01:22.975Z,5.30
2019-02-10T00:04:25.720Z,5.30
2019-02-10T00:07:28.454Z,5.30
2019-02-10T00:10:31.346Z,5.30
2019-02-10T00:13:37.955Z,5.20
2019-02-10T00:16:40.655Z,5.20
2019-02-10T00:19:43.435Z,5.20
2019-02-10T00:22:46.131Z,5.20
2019-02-10T00:25:48.914Z,5.20
2019-02-10T00:28:51.623Z,5.20
2019-02-10T00:31:54.352Z,5.20
2019-02-10T00:34:57.068Z,5.20
2019-02-10T00:37:59.837Z,5.10
2019-02-10T00:41:02.605Z,5.10
2019-02-10T00:44:05.329Z,5.20
2019-02-10T00:47:09.169Z,5.10
2019-02-10T00:50:11.983Z,5.10
2019-02-10T00:53:14.689Z,5.20
2019-02-10T00:56:17.362Z,5.10
2019-02-10T00:59:20.056Z,5.20
2019-02-10T01:02:23.778Z,5.10
2019-02-10T01:05:26.902Z,5.20
2019-02-10T01:08:29.726Z,5.10
2019-02-10T01:11:32.455Z,5.10
2019-02-10T01:14:35.197Z,5.10
2019-02-10T01:17:37.956Z,5.00
2019-02-10T01:20:40.775Z,5.00
2019-02-10T01:23:43.440Z,5.00
2019-02-10T01:26:46.060Z,5.00
2019-02-10T01:29:48.884Z,5.00
2019-02-10T01:32:51.605Z,5.00
2019-02-10T01:35:54.422Z,5.00
2019-02-10T01:38:57.151Z,5.00
2019-02-10T01:41:59.974Z,5.00
2019-02-10T01:45:02.809Z,5.00
2019-02-10T01:48:05.513Z,5.00
2019-02-10T01:51:08.282Z,5.00
2019-02-10T01:54:11.085Z,5.00
2019-02-10T01:57:13.798Z,5.00
2019-02-10T02:00:17.056Z,5.00
2019-02-10T02:03:19.858Z,5.00
2019-02-10T02:06:22.584Z,4.90
2019-02-10T02:09:25.240Z,4.90
2019-02-10T02:12:28.004Z,4.90
2019-02-10T02:15:30.730Z,5.00
2019-02-10T02:18:33.352Z,5.00
2019-02-10T02:21:36.144Z,5.00
2019-02-10T02:24:39.975Z,4.90
2019-02-10T02:27:42.800Z,4.90
2019-02-10T02:30:45.518Z,4.90
2019-02-10T02:33:48.263Z,4.90
2019-02-10T02:36:50.987Z,4.90
2019-02-10T02:39:54.694Z,4.90
2019-02-10T02:42:58.567Z,4.90
2019-02-10T02:46:01.562Z,4.90
2019-02-10T02:49:04.230Z,4.90
2019-02-10T02:52:06.985Z,4.90
2019-02-10T02:55:09.679Z,4.90
2019-02-10T02:58:13.524Z,4.90
2019-02-10T03:01:16.192Z,4.90
2019-02-10T03:04:18.916Z,4.90
2019-02-10T03:07:21.623Z,4.80
2019-02-10T03:10:24.464Z,4.90
2019-02-10T03:13:27.297Z,4.90
2019-02-10T03:16:30.011Z,4.90
2019-02-10T03:19:32.696Z,4.80
2019-02-10T03:22:35.492Z,4.90
2019-02-10T03:25:38.105Z,4.80
2019-02-10T03:28:40.835Z,4.90
2019-02-10T03:31:43.514Z,4.80
2019-02-10T03:34:46.265Z,4.80
2019-02-10T03:37:49.036Z,4.80
2019-02-10T03:40:51.803Z,4.80
2019-02-10T03:43:54.487Z,4.80
2019-02-10T03:46:57.239Z,4.80
2019-02-10T03:49:59.971Z,4.90
2019-02-10T03:53:02.646Z,4.90
2019-02-10T03:56:05.331Z,4.90
2019-02-10T03:59:08.032Z,4.90
2019-02-10T04:02:10.751Z,4.90
2019-02-10T04:05:13.350Z,4.90
2019-02-10T04:08:15.938Z,5.00
2019-02-10T04:11:18.687Z,5.00
2019-02-10T04:14:21.365Z,5.00
2019-02-10T04:17:24.104Z,5.10
2019-02-10T04:20:26.821Z,5.10
2019-02-10T04:23:29.436Z,5.00
2019-02-10T04:26:32.274Z,5.10
2019-02-10T04:29:34.990Z,5.10
2019-02-10T04:32:37.622Z,5.10
2019-02-10T04:35:40.350Z,5.10
2019-02-10T04:38:43.019Z,5.10
2019-02-10T04:41:45.708Z,5.10
2019-02-10T04:44:48.904Z,5.10
2019-02-10T04:47:51.824Z,5.10
2019-02-10T04:50:55.594Z,5.00
2019-02-10T04:53:58.279Z,5.00
2019-02-10T04:57:00.905Z,4.90
2019-02-10T05:00:04.292Z,4.90
2019-02-10T05:03:07.099Z,4.90
2019-02-10T05:06:09.959Z,4.90
2019-02-10T05:09:12.548Z,4.90
2019-02-10T05:12:15.237Z,4.80
2019-02-10T05:15:17.885Z,4.80
2019-02-10T05:18:20.567Z,4.80
2019-02-10T05:21:23.205Z,4.80
2019-02-10T05:24:26.261Z,4.70
2019-02-10T05:27:28.962Z,4.70
2019-02-10T05:30:31.548Z,4.60
2019-02-10T05:33:34.215Z,4.60
2019-02-10T05:36:38.647Z,4.50
2019-02-10T05:39:41.452Z,4.50
2019-02-10T05:42:44.066Z,4.50
2019-02-10T05:45:46.747Z,4.50
2019-02-10T05:48:49.341Z,4.50
2019-02-10T05:51:51.982Z,4.50
2019-02-10T05:54:54.666Z,4.40
2019-02-10T05:57:57.320Z,4.40
2019-02-10T06:01:37.839Z,4.50
2019-02-10T06:04:41.261Z,4.50
2019-02-10T06:07:43.843Z,4.50
2019-02-10T06:10:46.465Z,4.50
2019-02-10T06:13:49.200Z,4.60
2019-02-10T06:16:51.860Z,4.70
2019-02-10T06:19:54.565Z,4.70
2019-02-10T06:22:57.333Z,4.80
2019-02-10T06:26:00.151Z,4.80
2019-02-10T06:29:02.846Z,4.80
2019-02-10T06:32:05.799Z,4.90
2019-02-10T06:35:09.046Z,5.00
2019-02-10T06:38:11.756Z,5.00
2019-02-10T06:41:14.387Z,5.00
2019-02-10T06:44:17.162Z,5.00
2019-02-10T06:47:19.829Z,5.00
2019-02-10T06:50:22.745Z,5.00
2019-02-10T06:53:25.391Z,5.00
2019-02-10T06:56:28.086Z,5.00
2019-02-10T06:59:42.704Z,5.00
2019-02-10T07:03:25.781Z,5.00
2019-02-10T07:06:28.484Z,5.00
2019-02-10T07:09:31.157Z,5.00
2019-02-10T07:12:47.427Z,4.90
2019-02-10T07:16:26.854Z,4.90
2019-02-10T07:20:25.143Z,4.90
2019-02-10T07:24:30.716Z,4.80
2019-02-10T07:27:33.317Z,4.80
2019-02-10T07:30:47.227Z,4.90
2019-02-10T07:34:34.727Z,4.80
2019-02-10T07:38:05.801Z,4.80
2019-02-10T07:41:36.778Z,4.80
2019-02-10T07:45:09.926Z,4.80
2019-02-10T07:48:37.598Z,4.80
2019-02-10T07:52:28.735Z,4.80
2019-02-10T07:56:13.216Z,4.70
2019-02-10T08:00:11.989Z,4.70
2019-02-10T08:03:43.166Z,4.70
2019-02-10T08:07:05.001Z,4.70
2019-02-10T08:10:55.643Z,4.70
2019-02-10T08:14:43.235Z,4.70
2019-02-10T08:18:12.560Z,4.70
2019-02-10T08:21:59.970Z,4.70
2019-02-10T08:25:20.329Z,4.70
2019-02-10T08:28:52.627Z,4.60
2019-02-10T08:32:15.448Z,4.50
2019-02-10T08:35:54.014Z,4.50
2019-02-10T08:39:31.142Z,4.50
2019-02-10T08:42:54.795Z,4.50
2019-02-10T08:46:19.223Z,4.50
2019-02-10T08:49:51.932Z,4.50
2019-02-10T08:53:02.148Z,4.50
2019-02-10T08:56:04.936Z,4.50
2019-02-10T08:59:07.598Z,4.50
2019-02-10T09:02:10.396Z,4.50
2019-02-10T09:05:13.074Z,4.30
2019-02-10T09:08:15.951Z,4.30
2019-02-10T09:11:19.740Z,4.30
2019-02-10T09:14:22.621Z,4.30
2019-02-10T09:17:25.381Z,4.30
2019-02-10T09:20:28.393Z,4.40
2019-02-10T09:23:31.021Z,4.40
2019-02-10T09:26:33.892Z,4.50
2019-02-10T09:29:36.574Z,4.50
2019-02-10T09:32:39.288Z,4.40
2019-02-10T09:35:42.012Z,4.50
2019-02-10T09:38:44.810Z,4.50
2019-02-10T09:41:47.546Z,4.50
2019-02-10T09:44:50.268Z,4.50
2019-02-10T09:47:53.054Z,4.60
2019-02-10T09:50:55.792Z,4.50
2019-02-10T09:53:58.504Z,4.60
2019-02-10T09:57:01.280Z,4.60
2019-02-10T10:00:05.713Z,4.70
2019-02-10T10:03:08.506Z,4.70
2019-02-10T10:06:11.411Z,4.80
2019-02-10T10:09:19.341Z,4.90
2019-02-10T10:12:18.721Z,4.90
2019-02-10T10:15:21.479Z,4.90
2019-02-10T10:18:24.141Z,5.00
2019-02-10T10:21:26.939Z,5.00
2019-02-10T10:24:29.579Z,5.10
2019-02-10T10:27:32.354Z,5.10
2019-02-10T10:30:36.019Z,5.20
2019-02-10T10:33:44.657Z,5.10
2019-02-10T10:36:47.093Z,5.10
2019-02-10T10:39:52.326Z,5.10
2019-02-10T10:42:55.375Z,5.00
2019-02-10T10:45:58.183Z,5.00
2019-02-10T10:49:01.526Z,4.90
2019-02-10T10:52:08.668Z,5.00
2019-02-10T10:55:11.430Z,4.90
2019-02-10T10:58:14.804Z,4.90
2019-02-10T11:01:25.168Z,4.90
2019-02-10T11:04:26.058Z,4.80
2019-02-10T11:07:28.926Z,4.80
2019-02-10T11:10:34.081Z,4.80
2019-02-10T11:13:37.956Z,4.80
2019-02-10T11:16:40.639Z,4.80
2019-02-10T11:19:43.334Z,4.70
2019-02-10T11:22:46.418Z,4.70
2019-02-10T11:25:50.423Z,4.80
2019-02-10T11:28:53.116Z,4.70
2019-02-10T11:31:55.931Z,4.80
2019-02-10T11:35:01.764Z,4.80
2019-02-10T11:38:04.879Z,4.80
2019-02-10T11:41:10.585Z,4.90
2019-02-10T11:44:13.878Z,5.00
2019-02-10T11:47:16.657Z,5.00
2019-02-10T11:50:21.440Z,5.10
2019-02-10T11:53:24.331Z,5.10
2019-02-10T11:56:27.096Z,5.10
2019-02-10T11:59:29.844Z,5.00
2019-02-10T12:02:37.899Z,5.00
2019-02-10T12:05:37.148Z,5.00
2019-02-10T12:08:39.992Z,4.90
2019-02-10T12:11:42.662Z,5.00
2019-02-10T12:14:45.611Z,5.00
2019-02-10T12:17:48.336Z,5.00
2019-02-10T12:20:51.387Z,5.00
2019-02-10T12:23:54.131Z,4.90
2019-02-10T12:26:57.041Z,4.80
2019-02-10T12:30:00.729Z,4.90
2019-02-10T12:33:03.694Z,4.90
2019-02-10T12:36:06.464Z,4.80
2019-02-10T12:39:09.172Z,4.90
2019-02-10T12:42:11.916Z,4.90
2019-02-10T12:45:14.713Z,5.00
2019-02-10T12:48:17.428Z,5.00
2019-02-10T12:51:20.585Z,5.00
2019-02-10T12:54:23.346Z,5.10
2019-02-10T12:57:26.144Z,5.00
2019-02-10T13:00:28.811Z,5.20
2019-02-10T13:03:31.440Z,5.20
2019-02-10T13:06:34.145Z,5.20
2019-02-10T13:09:36.940Z,5.20
2019-02-10T13:12:39.600Z,5.40
2019-02-10T13:15:42.576Z,5.50
2019-02-10T13:18:45.326Z,5.40
2019-02-10T13:21:48.069Z,5.30
2019-02-10T13:24:50.818Z,5.30
2019-02-10T13:27:53.657Z,5.30
2019-02-10T13:30:57.617Z,5.40
2019-02-10T13:34:00.315Z,5.40
2019-02-10T13:37:03.852Z,5.60
2019-02-10T13:40:16.395Z,5.60
2019-02-10T13:43:18.058Z,5.50
2019-02-10T13:46:22.024Z,5.60
2019-02-10T13:49:25.631Z,5.60
2019-02-10T13:52:28.489Z,5.60
2019-02-10T13:55:31.496Z,5.50
2019-02-10T13:58:35.188Z,5.40
2019-02-10T14:01:38.956Z,5.60
2019-02-10T14:04:47.183Z,5.80
2019-02-10T14:07:51.199Z,6.00
2019-02-10T14:10:55.202Z,5.90
2019-02-10T14:13:58.512Z,5.50
2019-02-10T14:17:01.960Z,5.30
2019-02-10T14:20:06.311Z,5.20
2019-02-10T14:23:11.733Z,5.10
2019-02-10T14:26:15.223Z,4.90
2019-02-10T14:29:18.003Z,4.90
2019-02-10T14:32:20.955Z,4.70
2019-02-10T14:35:24.093Z,4.70
2019-02-10T14:38:27.152Z,4.70
2019-02-10T14:41:29.916Z,4.60
2019-02-10T14:44:32.932Z,4.60
2019-02-10T14:47:35.766Z,4.50
2019-02-10T14:50:41.711Z,4.50
2019-02-10T14:53:46.294Z,4.50
2019-02-10T14:56:49.930Z,4.40
2019-02-10T14:59:52.817Z,4.40
2019-02-10T15:02:55.983Z,4.40
2019-02-10T15:06:02.516Z,4.50
2019-02-10T15:09:08.633Z,4.40
2019-02-10T15:12:15.842Z,4.40
2019-02-10T15:15:21.515Z,4.40
2019-02-10T15:18:27.166Z,4.30
2019-02-10T15:21:33.168Z,4.30
2019-02-10T15:24:36.301Z,4.30
2019-02-10T15:27:42.153Z,4.30
2019-02-10T15:30:44.856Z,4.20
2019-02-10T15:33:47.725Z,4.20
2019-02-10T15:36:50.464Z,4.30
2019-02-10T15:39:53.729Z,4.20
2019-02-10T15:42:57.261Z,4.20
2019-02-10T15:46:00.303Z,4.20
2019-02-10T15:49:03.238Z,4.10
2019-02-10T15:52:06.021Z,4.10
2019-02-10T15:55:09.320Z,4.10
2019-02-10T15:58:12.069Z,4.10
2019-02-10T16:01:16.105Z,4.10
2019-02-10T16:04:19.268Z,4.10
2019-02-10T16:07:22.291Z,4.00
2019-02-10T16:10:25.820Z,4.00
2019-02-10T16:13:29.094Z,4.00
2019-02-10T16:16:32.343Z,4.00
2019-02-10T16:19:35.284Z,4.00
2019-02-10T16:22:38.199Z,4.00
2019-02-10T16:25:41.222Z,3.90
2019-02-10T16:28:45.032Z,3.90
2019-02-10T16:31:48.201Z,4.00
2019-02-10T16:34:51.250Z,4.00
2019-02-10T16:37:54.228Z,4.00
2019-02-10T16:40:57.195Z,4.00
2019-02-10T16:44:00.320Z,4.00
2019-02-10T16:47:03.377Z,4.00
2019-02-10T16:50:07.129Z,4.00
2019-02-10T16:53:10.158Z,4.10
2019-02-10T16:56:13.295Z,4.10
2019-02-10T16:59:16.279Z,4.10
2019-02-10T17:02:19.397Z,4.10
2019-02-10T17:05:23.254Z,4.10
2019-02-10T17:08:27.143Z,4.10
2019-02-10T17:11:30.289Z,4.00
2019-02-10T17:14:33.308Z,4.00
2019-02-10T17:17:39.980Z,4.00
2019-02-10T17:20:43.138Z,3.90
2019-02-10T17:23:47.060Z,4.00
2019-02-10T17:26:50.374Z,4.00
2019-02-10T17:29:54.104Z,4.00
2019-02-10T17:32:57.201Z,3.90
2019-02-10T17:36:00.063Z,4.00
2019-02-10T17:39:04.841Z,4.00
2019-02-10T17:42:08.957Z,4.00
2019-02-10T17:45:11.931Z,4.00
2019-02-10T17:48:14.978Z,4.00
2019-02-10T17:51:17.940Z,4.00
2019-02-10T17:54:20.819Z,3.90
2019-02-10T17:57:23.604Z,3.90
2019-02-10T18:00:30.291Z,3.90
2019-02-10T18:03:33.075Z,3.90
2019-02-10T18:06:35.876Z,3.90
2019-02-10T18:09:38.797Z,3.90
2019-02-10T18:12:41.653Z,3.90
2019-02-10T18:16:15.150Z,3.90
2019-02-10T18:19:36.339Z,3.90
2019-02-10T18:22:57.096Z,3.90
2019-02-10T18:26:17.999Z,3.80
2019-02-10T18:29:44.132Z,3.80
2019-02-10T18:33:15.333Z,3.90
2019-02-10T18:36:36.057Z,3.90
2019-02-10T18:39:45.508Z,3.80
2019-02-10T18:43:19.735Z,3.80
2019-02-10T18:46:36.235Z,3.80
2019-02-10T18:49:51.552Z,3.80
2019-02-10T18:53:19.561Z,3.80
2019-02-10T18:56:35.728Z,3.80
2019-02-10T19:00:13.735Z,3.80
2019-02-10T19:03:39.568Z,3.80
2019-02-10T19:06:50.173Z,3.70
2019-02-10T19:10:11.317Z,3.70
2019-02-10T19:13:22.233Z,3.60
2019-02-10T19:16:49.079Z,3.60
2019-02-10T19:20:14.160Z,3.60
2019-02-10T19:23:26.375Z,3.60
2019-02-10T19:27:06.862Z,3.70
2019-02-10T19:30:27.100Z,3.70
2019-02-10T19:33:49.243Z,3.70
2019-02-10T19:37:17.383Z,3.70
2019-02-10T19:40:26.471Z,3.70
2019-02-10T19:43:40.176Z,3.70
2019-02-10T19:46:50.532Z,3.60
2019-02-10T19:50:15.830Z,3.70
2019-02-10T19:53:38.898Z,3.70
2019-02-10T19:56:59.678Z,3.70
2019-02-10T20:00:31.553Z,3.70
2019-02-10T20:04:11.743Z,3.70
2019-02-10T20:07:33.867Z,3.60
2019-02-10T20:10:56.830Z,3.50
2019-02-10T20:14:21.711Z,3.40
2019-02-10T20:17:42.815Z,3.40
2019-02-10T20:20:59.092Z,3.30
2019-02-10T20:24:24.253Z,3.30
2019-02-10T20:27:55.847Z,3.30
2019-02-10T20:31:23.180Z,3.20
2019-02-10T20:34:34.401Z,3.20
2019-02-10T20:37:48.935Z,3.20
2019-02-10T20:41:10.472Z,3.20
2019-02-10T20:44:41.943Z,3.20
2019-02-10T20:48:13.223Z,3.20
2019-02-10T20:51:48.118Z,3.20
2019-02-10T20:55:10.374Z,3.20
2019-02-10T20:58:41.802Z,3.20
2019-02-10T21:02:01.944Z,3.20
2019-02-10T21:05:33.663Z,3.20
2019-02-10T21:08:55.947Z,3.20
2019-02-10T21:12:09.647Z,3.20
2019-02-10T21:15:30.567Z,3.20
2019-02-10T21:18:54.243Z,3.20
2019-02-10T21:22:19.148Z,3.20
2019-02-10T21:25:30.231Z,3.20
2019-02-10T21:28:54.868Z,3.20
2019-02-10T21:32:18.995Z,3.20
2019-02-10T21:35:28.207Z,3.20
2019-02-10T21:38:39.485Z,3.20
2019-02-10T21:41:56.718Z,3.10
2019-02-10T21:45:23.023Z,3.10
2019-02-10T21:48:29.279Z,3.10
2019-02-10T21:51:32.015Z,3.10
2019-02-10T21:54:35.087Z,3.10
2019-02-10T21:57:39.181Z,3.10
2019-02-10T22:00:42.131Z,3.20
2019-02-10T22:03:45.059Z,3.20
2019-02-10T22:06:47.807Z,3.20
2019-02-10T22:09:51.012Z,3.20
2019-02-10T22:12:54.400Z,3.20
2019-02-10T22:15:57.147Z,3.20
2019-02-10T22:18:59.992Z,3.20
2019-02-10T22:22:03.115Z,3.20
2019-02-10T22:25:07.304Z,3.20
2019-02-10T22:28:10.043Z,3.20
2019-02-10T22:31:18.684Z,3.30
2019-02-10T22:34:17.550Z,3.30
2019-02-10T22:37:20.277Z,3.30
2019-02-10T22:40:23.184Z,3.40
2019-02-10T22:43:26.039Z,3.40
2019-02-10T22:46:28.805Z,3.30
2019-02-10T22:49:31.664Z,3.40
2019-02-10T22:52:34.431Z,3.30
2019-02-10T22:55:37.339Z,3.30
2019-02-10T22:58:39.935Z,3.30
2019-02-10T23:01:42.963Z,3.30
2019-02-10T23:04:45.636Z,3.20
2019-02-10T23:07:48.423Z,3.20
2019-02-10T23:10:52.038Z,3.10
2019-02-10T23:13:54.865Z,3.10
2019-02-10T23:16:57.699Z,3.10
2019-02-10T23:20:00.669Z,3.10
2019-02-10T23:23:03.355Z,3.10
2019-02-10T23:26:06.197Z,3.10
2019-02-10T23:29:08.819Z,3.10
2019-02-10T23:32:11.842Z,3.20
2019-02-10T23:35:14.724Z,3.20
2019-02-10T23:38:17.573Z,3.20
2019-02-10T23:41:20.301Z,3.20
2019-02-10T23:44:23.133Z,3.20
2019-02-10T23:47:25.781Z,3.20
2019-02-10T23:50:28.540Z,3.20
2019-02-10T23:53:31.407Z,3.20
2019-02-10T23:56:34.284Z,3.30
2019-02-10T23:59:37.083Z,3.30
